Wetterdaten: Woche 31.08.15 - 06.09.15 (KW36)
Datum Zeit Temperatur Luftfeuchte Luftdruck Niederschlag Windrichtung Sonnenschein Solar Wind
31.08.2015 00:00 18,9 C 81 % 1014,1 hPa 0,0 l/m N 0,00 h 0 W/m 0,0 km/h (0 Bft)
31.08.2015 01:00 18,1 C 83 % 1013,6 hPa 0,0 l/m N 0,00 h 0 W/m 0,0 km/h (0 Bft)
31.08.2015 02:00 17,4 C 86 % 1013,2 hPa 0,0 l/m N 0,00 h 0 W/m 0,0 km/h (0 Bft)
31.08.2015 03:00 16,8 C 88 % 1012,8 hPa 0,0 l/m N 0,00 h 0 W/m 0,0 km/h (0 Bft)
31.08.2015 04:00 16,4 C 90 % 1012,8 hPa 0,0 l/m N 0,00 h 0 W/m 0,0 km/h (0 Bft)
31.08.2015 05:00 15,8 C 90 % 1013,1 hPa 0,0 l/m N 0,00 h 0 W/m 0,0 km/h (0 Bft)
31.08.2015 06:00 15,3 C 91 % 1013,4 hPa 0,0 l/m N 0,00 h 8 W/m 0,0 km/h (0 Bft)
31.08.2015 07:00 15,3 C 93 % 1013,5 hPa 0,0 l/m N 0,00 h 48 W/m 0,0 km/h (0 Bft)
31.08.2015 08:00 17,0 C 95 % 1013,3 hPa 0,0 l/m N 0,83 h 201 W/m 0,0 km/h (0 Bft)
31.08.2015 09:00 20,2 C 88 % 1013,1 hPa 0,0 l/m SW 1,00 h 366 W/m 8,2 km/h (2 Bft)
31.08.2015 10:00 23,2 C 70 % 1012,9 hPa 0,0 l/m SW 1,00 h 523 W/m 12,8 km/h (3 Bft)
31.08.2015 11:00 25,3 C 64 % 1012,8 hPa 0,0 l/m SW 1,00 h 649 W/m 13,3 km/h (3 Bft)
31.08.2015 12:00 26,9 C 57 % 1011,9 hPa 0,0 l/m SW 1,00 h 732 W/m 12,8 km/h (3 Bft)
31.08.2015 13:00 28,6 C 51 % 1011,4 hPa 0,0 l/m SW 1,00 h 764 W/m 13,4 km/h (3 Bft)
31.08.2015 14:00 29,5 C 46 % 1011,2 hPa 0,0 l/m W-SW 1,00 h 748 W/m 16,5 km/h (3 Bft)
31.08.2015 15:00 30,9 C 35 % 1010,7 hPa 0,0 l/m SW 1,00 h 691 W/m 16,9 km/h (3 Bft)
31.08.2015 16:00 31,8 C 29 % 1010,3 hPa 0,0 l/m SW 1,00 h 588 W/m 13,4 km/h (3 Bft)
31.08.2015 17:00 31,5 C 33 % 1009,9 hPa 0,0 l/m W-SW 1,00 h 422 W/m 14,8 km/h (3 Bft)
31.08.2015 18:00 30,2 C 38 % 1009,6 hPa 0,0 l/m W-SW 0,83 h 225 W/m 13,6 km/h (3 Bft)
31.08.2015 19:00 28,1 C 43 % 1009,6 hPa 0,0 l/m W-SW 0,08 h 27 W/m 5,9 km/h (2 Bft)
31.08.2015 20:00 25,0 C 52 % 1009,7 hPa 0,0 l/m N 0,00 h 5 W/m 3,7 km/h (1 Bft)
31.08.2015 21:00 22,7 C 59 % 1009,7 hPa 0,0 l/m W-SW 0,00 h 0 W/m 4,4 km/h (1 Bft)
31.08.2015 22:00 21,3 C 64 % 1009,6 hPa 0,0 l/m W-SW 0,00 h 0 W/m 3,3 km/h (1 Bft)
31.08.2015 23:00 20,1 C 69 % 1009,4 hPa 0,0 l/m N 0,00 h 0 W/m 0,0 km/h (0 Bft)
01.09.2015 00:00 19,1 C 73 % 1009,2 hPa 0,0 l/m N 0,00 h 0 W/m 0,0 km/h (0 Bft)
01.09.2015 01:00 18,5 C 77 % 1009,5 hPa 0,0 l/m N 0,00 h 0 W/m 0,0 km/h (0 Bft)
01.09.2015 02:00 17,6 C 79 % 1009,3 hPa 0,0 l/m N 0,00 h 0 W/m 0,0 km/h (0 Bft)
01.09.2015 03:00 16,6 C 83 % 1009,0 hPa 0,0 l/m N 0,00 h 0 W/m 0,0 km/h (0 Bft)
01.09.2015 04:00 16,0 C 86 % 1008,7 hPa 0,0 l/m N 0,00 h 0 W/m 0,0 km/h (0 Bft)
01.09.2015 05:00 15,4 C 88 % 1008,2 hPa 0,0 l/m N 0,00 h 0 W/m 0,0 km/h (0 Bft)
01.09.2015 06:00 14,9 C 89 % 1007,8 hPa 0,0 l/m N 0,08 h 9 W/m 0,0 km/h (0 Bft)
01.09.2015 07:00 14,9 C 92 % 1007,6 hPa 0,0 l/m N 0,00 h 46 W/m 0,0 km/h (0 Bft)
01.09.2015 08:00 15,9 C 92 % 1007,2 hPa 0,0 l/m N 0,67 h 180 W/m 0,0 km/h (0 Bft)
01.09.2015 09:00 19,2 C 83 % 1006,9 hPa 0,0 l/m W-SW 1,00 h 350 W/m 2,1 km/h (1 Bft)
01.09.2015 10:00 22,6 C 65 % 1006,7 hPa 0,0 l/m W-SW 1,00 h 509 W/m 2,7 km/h (1 Bft)
01.09.2015 11:00 25,2 C 52 % 1007,0 hPa 0,0 l/m N-NW 0,83 h 502 W/m 10,7 km/h (2 Bft)
01.09.2015 12:00 26,3 C 51 % 1007,7 hPa 0,0 l/m W-NW 0,83 h 670 W/m 23,9 km/h (4 Bft)
01.09.2015 13:00 24,5 C 56 % 1008,2 hPa 0,0 l/m W 0,17 h 286 W/m 26,9 km/h (4 Bft)
01.09.2015 14:00 23,2 C 61 % 1008,4 hPa 0,0 l/m W 0,00 h 246 W/m 17,0 km/h (3 Bft)
01.09.2015 15:00 22,9 C 62 % 1008,9 hPa 0,0 l/m W 0,08 h 137 W/m 24,3 km/h (4 Bft)
01.09.2015 16:00 20,3 C 76 % 1009,5 hPa 1,4 l/m W-SW 0,00 h 42 W/m 18,3 km/h (3 Bft)
01.09.2015 17:00 17,9 C 90 % 1010,1 hPa 2,8 l/m W-SW 0,00 h 29 W/m 12,6 km/h (3 Bft)
01.09.2015 18:00 17,2 C 94 % 1010,2 hPa 0,8 l/m W-SW 0,00 h 31 W/m 13,6 km/h (3 Bft)
01.09.2015 19:00 16,3 C 93 % 1011,3 hPa 2,6 l/m NW 0,00 h 8 W/m 9,4 km/h (2 Bft)
01.09.2015 20:00 15,8 C 95 % 1012,3 hPa 0,2 l/m N 0,00 h 0 W/m 2,0 km/h (1 Bft)
01.09.2015 21:00 15,6 C 95 % 1013,4 hPa 0,2 l/m W 0,00 h 0 W/m 6,4 km/h (2 Bft)
01.09.2015 22:00 15,3 C 96 % 1013,9 hPa 2,6 l/m N-NW 0,00 h 0 W/m 7,1 km/h (2 Bft)
01.09.2015 23:00 14,9 C 96 % 1014,3 hPa 0,0 l/m N 0,00 h 0 W/m 3,8 km/h (1 Bft)
02.09.2015 00:00 14,3 C 96 % 1014,7 hPa 0,2 l/m N 0,00 h 0 W/m 5,1 km/h (1 Bft)
02.09.2015 01:00 13,9 C 96 % 1014,8 hPa 0,0 l/m N 0,00 h 0 W/m 0,0 km/h (0 Bft)
02.09.2015 02:00 13,7 C 96 % 1015,1 hPa 0,0 l/m N 0,00 h 0 W/m 0,0 km/h (0 Bft)
02.09.2015 03:00 13,5 C 96 % 1015,1 hPa 0,0 l/m N 0,00 h 0 W/m 2,9 km/h (1 Bft)
02.09.2015 04:00 13,2 C 96 % 1015,0 hPa 0,0 l/m N 0,00 h 0 W/m 0,0 km/h (0 Bft)
02.09.2015 05:00 13,1 C 97 % 1014,7 hPa 0,0 l/m N 0,00 h 0 W/m 0,0 km/h (0 Bft)
02.09.2015 06:00 12,9 C 97 % 1014,4 hPa 0,0 l/m N 0,00 h 6 W/m 0,0 km/h (0 Bft)
02.09.2015 07:00 12,7 C 97 % 1014,5 hPa 0,0 l/m N 0,00 h 21 W/m 0,7 km/h (0 Bft)
02.09.2015 08:00 12,9 C 97 % 1014,5 hPa 0,0 l/m N 0,00 h 73 W/m 0,5 km/h (0 Bft)
02.09.2015 09:00 13,6 C 95 % 1014,6 hPa 0,0 l/m N 0,00 h 112 W/m 5,5 km/h (1 Bft)
02.09.2015 10:00 14,6 C 91 % 1014,4 hPa 0,0 l/m N-NO 0,08 h 211 W/m 9,0 km/h (2 Bft)
02.09.2015 11:00 15,3 C 88 % 1014,3 hPa 0,0 l/m N-NO 0,08 h 221 W/m 9,5 km/h (2 Bft)
02.09.2015 12:00 16,1 C 81 % 1014,2 hPa 0,0 l/m NO 0,17 h 328 W/m 11,4 km/h (2 Bft)
02.09.2015 13:00 17,5 C 74 % 1013,7 hPa 0,0 l/m O-NO 0,50 h 587 W/m 12,5 km/h (3 Bft)
02.09.2015 14:00 18,8 C 66 % 1013,5 hPa 0,0 l/m O 0,25 h 410 W/m 12,1 km/h (2 Bft)
02.09.2015 15:00 18,6 C 66 % 1013,1 hPa 0,0 l/m O 0,00 h 269 W/m 10,6 km/h (2 Bft)
02.09.2015 16:00 19,1 C 65 % 1013,0 hPa 0,0 l/m O 0,42 h 303 W/m 9,8 km/h (2 Bft)
02.09.2015 17:00 19,1 C 65 % 1013,0 hPa 0,0 l/m O-SO 0,25 h 175 W/m 10,7 km/h (2 Bft)
02.09.2015 18:00 18,5 C 68 % 1013,0 hPa 0,0 l/m SO 0,00 h 84 W/m 8,4 km/h (2 Bft)
02.09.2015 19:00 17,7 C 73 % 1013,0 hPa 0,0 l/m SO 0,08 h 26 W/m 5,1 km/h (1 Bft)
02.09.2015 20:00 16,6 C 77 % 1013,3 hPa 0,0 l/m SO 0,00 h 0 W/m 2,9 km/h (1 Bft)
02.09.2015 21:00 15,7 C 81 % 1013,3 hPa 0,0 l/m N 0,00 h 0 W/m 0,0 km/h (0 Bft)
02.09.2015 22:00 14,8 C 85 % 1013,3 hPa 0,0 l/m N 0,00 h 0 W/m 0,0 km/h (0 Bft)
02.09.2015 23:00 14,2 C 88 % 1013,1 hPa 0,0 l/m N 0,00 h 0 W/m 0,0 km/h (0 Bft)
03.09.2015 00:00 13,5 C 91 % 1012,8 hPa 0,0 l/m N 0,00 h 0 W/m 0,5 km/h (0 Bft)
03.09.2015 01:00 13,2 C 93 % 1012,5 hPa 0,0 l/m O-SO 0,00 h 0 W/m 1,5 km/h (1 Bft)
03.09.2015 02:00 12,9 C 93 % 1012,5 hPa 0,0 l/m O-NO 0,00 h 0 W/m 3,2 km/h (1 Bft)
03.09.2015 03:00 12,5 C 93 % 1012,1 hPa 0,0 l/m O-NO 0,00 h 0 W/m 0,4 km/h (0 Bft)
03.09.2015 04:00 12,0 C 94 % 1011,9 hPa 0,0 l/m N 0,00 h 0 W/m 0,1 km/h (0 Bft)
03.09.2015 05:00 11,8 C 95 % 1011,8 hPa 0,0 l/m N 0,00 h 0 W/m 0,0 km/h (0 Bft)
03.09.2015 06:00 11,5 C 95 % 1011,4 hPa 0,0 l/m NO 0,00 h 6 W/m 0,5 km/h (0 Bft)
03.09.2015 07:00 11,3 C 96 % 1012,0 hPa 0,0 l/m N-NO 0,00 h 14 W/m 3,4 km/h (1 Bft)
03.09.2015 08:00 12,0 C 97 % 1012,4 hPa 0,0 l/m N-NO 0,00 h 72 W/m 0,9 km/h (0 Bft)
03.09.2015 09:00 12,6 C 97 % 1012,4 hPa 0,0 l/m N 0,00 h 93 W/m 4,4 km/h (1 Bft)
03.09.2015 10:00 13,4 C 96 % 1012,7 hPa 0,0 l/m N 0,00 h 199 W/m 3,7 km/h (1 Bft)
03.09.2015 11:00 15,5 C 86 % 1012,4 hPa 0,0 l/m N 0,00 h 214 W/m 3,6 km/h (1 Bft)
03.09.2015 12:00 16,5 C 79 % 1012,3 hPa 0,0 l/m N 0,00 h 179 W/m 3,3 km/h (1 Bft)
03.09.2015 13:00 16,7 C 78 % 1012,3 hPa 0,0 l/m N 0,00 h 153 W/m 8,0 km/h (2 Bft)
03.09.2015 14:00 17,0 C 75 % 1012,2 hPa 0,0 l/m N 0,08 h 193 W/m 9,7 km/h (2 Bft)
03.09.2015 15:00 16,8 C 74 % 1012,0 hPa 0,0 l/m N 0,00 h 95 W/m 2,3 km/h (1 Bft)
03.09.2015 16:00 16,9 C 75 % 1011,9 hPa 0,0 l/m W-SW 0,00 h 80 W/m 5,3 km/h (1 Bft)
03.09.2015 17:00 16,4 C 78 % 1012,0 hPa 0,0 l/m SW 0,00 h 44 W/m 6,0 km/h (2 Bft)
03.09.2015 18:00 16,1 C 84 % 1012,0 hPa 0,0 l/m SW 0,08 h 85 W/m 12,1 km/h (2 Bft)
03.09.2015 19:00 15,3 C 87 % 1012,3 hPa 0,0 l/m SW 0,00 h 15 W/m 9,7 km/h (2 Bft)
03.09.2015 20:00 13,7 C 86 % 1013,2 hPa 6,6 l/m N-NW 0,00 h 0 W/m 2,2 km/h (1 Bft)
03.09.2015 21:00 12,5 C 91 % 1013,5 hPa 0,4 l/m NO 0,00 h 0 W/m 0,9 km/h (0 Bft)
03.09.2015 22:00 12,2 C 93 % 1013,9 hPa 0,2 l/m NO 0,00 h 0 W/m 1,1 km/h (0 Bft)
03.09.2015 23:00 12,0 C 94 % 1013,9 hPa 0,0 l/m N 0,00 h 0 W/m 0,0 km/h (0 Bft)
04.09.2015 00:00 12,0 C 95 % 1014,3 hPa 0,0 l/m N 0,00 h 0 W/m 0,1 km/h (0 Bft)
04.09.2015 01:00 12,1 C 96 % 1014,4 hPa 0,0 l/m N 0,00 h 0 W/m 0,8 km/h (0 Bft)
04.09.2015 02:00 11,8 C 96 % 1014,2 hPa 0,0 l/m N 0,00 h 0 W/m 0,0 km/h (0 Bft)
04.09.2015 03:00 11,3 C 96 % 1013,9 hPa 0,0 l/m N 0,00 h 0 W/m 0,0 km/h (0 Bft)
04.09.2015 04:00 11,0 C 96 % 1014,0 hPa 0,0 l/m N 0,00 h 0 W/m 0,0 km/h (0 Bft)
04.09.2015 05:00 10,9 C 96 % 1014,0 hPa 0,0 l/m N 0,00 h 0 W/m 0,1 km/h (0 Bft)
04.09.2015 06:00 10,9 C 97 % 1014,0 hPa 0,0 l/m N 0,00 h 0 W/m 0,7 km/h (0 Bft)
04.09.2015 07:00 11,1 C 97 % 1014,3 hPa 0,0 l/m N 0,00 h 13 W/m 1,2 km/h (1 Bft)
04.09.2015 08:00 11,6 C 98 % 1014,6 hPa 0,0 l/m NO 0,00 h 69 W/m 4,1 km/h (1 Bft)
04.09.2015 09:00 12,3 C 98 % 1014,8 hPa 0,0 l/m N-NO 0,00 h 108 W/m 2,8 km/h (1 Bft)
04.09.2015 10:00 12,8 C 98 % 1015,1 hPa 0,0 l/m N 0,00 h 141 W/m 6,1 km/h (2 Bft)
04.09.2015 11:00 14,1 C 93 % 1014,7 hPa 0,0 l/m W 0,75 h 621 W/m 8,4 km/h (2 Bft)
04.09.2015 12:00 16,4 C 71 % 1014,4 hPa 0,0 l/m W-SW 0,75 h 629 W/m 10,1 km/h (2 Bft)
04.09.2015 13:00 18,0 C 60 % 1013,9 hPa 0,0 l/m W-NW 0,42 h 451 W/m 14,9 km/h (3 Bft)
04.09.2015 14:00 18,2 C 59 % 1013,4 hPa 0,0 l/m W-NW 0,75 h 648 W/m 9,0 km/h (2 Bft)
04.09.2015 15:00 19,9 C 53 % 1013,0 hPa 0,0 l/m W 0,75 h 584 W/m 12,2 km/h (2 Bft)
04.09.2015 16:00 21,0 C 49 % 1012,3 hPa 0,0 l/m W-NW 0,58 h 426 W/m 9,9 km/h (2 Bft)
04.09.2015 17:00 20,0 C 51 % 1011,9 hPa 0,0 l/m N 0,00 h 115 W/m 1,6 km/h (1 Bft)
04.09.2015 18:00 18,9 C 57 % 1012,0 hPa 0,0 l/m N-NO 0,33 h 111 W/m 6,2 km/h (2 Bft)
04.09.2015 19:00 18,1 C 58 % 1011,9 hPa 0,0 l/m N-NO 0,08 h 25 W/m 7,6 km/h (2 Bft)
04.09.2015 20:00 16,3 C 64 % 1012,1 hPa 0,0 l/m N-NO 0,00 h 0 W/m 3,6 km/h (1 Bft)
04.09.2015 21:00 14,4 C 69 % 1013,1 hPa 0,0 l/m N-NO 0,00 h 0 W/m 5,5 km/h (1 Bft)
04.09.2015 22:00 13,7 C 70 % 1013,5 hPa 0,0 l/m N 0,00 h 0 W/m 6,4 km/h (2 Bft)
04.09.2015 23:00 13,1 C 69 % 1013,7 hPa 0,0 l/m N-NW 0,00 h 0 W/m 10,5 km/h (2 Bft)
05.09.2015 00:00 12,6 C 70 % 1013,9 hPa 0,0 l/m N 0,00 h 0 W/m 1,6 km/h (1 Bft)
05.09.2015 01:00 12,2 C 73 % 1013,9 hPa 0,0 l/m N 0,00 h 0 W/m 2,5 km/h (1 Bft)
05.09.2015 02:00 11,8 C 73 % 1013,7 hPa 0,0 l/m N 0,00 h 0 W/m 1,9 km/h (1 Bft)
05.09.2015 03:00 11,7 C 76 % 1013,6 hPa 0,0 l/m N 0,00 h 0 W/m 0,9 km/h (0 Bft)
05.09.2015 04:00 11,5 C 79 % 1013,7 hPa 0,0 l/m N 0,00 h 0 W/m 0,0 km/h (0 Bft)
05.09.2015 05:00 11,2 C 81 % 1013,9 hPa 0,0 l/m N 0,00 h 0 W/m 0,3 km/h (0 Bft)
05.09.2015 06:00 10,9 C 82 % 1014,1 hPa 0,0 l/m N 0,00 h 0 W/m 0,7 km/h (0 Bft)
05.09.2015 07:00 10,9 C 82 % 1014,4 hPa 0,0 l/m N 0,00 h 23 W/m 3,7 km/h (1 Bft)
05.09.2015 08:00 11,0 C 79 % 1014,7 hPa 0,0 l/m N 0,00 h 43 W/m 5,1 km/h (1 Bft)
05.09.2015 09:00 11,4 C 78 % 1014,8 hPa 0,0 l/m N 0,00 h 125 W/m 4,0 km/h (1 Bft)
05.09.2015 10:00 12,7 C 71 % 1015,1 hPa 0,0 l/m NW 0,58 h 392 W/m 10,2 km/h (2 Bft)
05.09.2015 11:00 14,0 C 64 % 1015,2 hPa 0,0 l/m W 0,75 h 539 W/m 12,8 km/h (3 Bft)
05.09.2015 12:00 15,1 C 58 % 1015,0 hPa 0,0 l/m W-NW 0,50 h 488 W/m 14,8 km/h (3 Bft)
05.09.2015 13:00 15,5 C 58 % 1014,9 hPa 0,0 l/m NW 0,17 h 347 W/m 11,2 km/h (2 Bft)
05.09.2015 14:00 15,6 C 58 % 1015,0 hPa 0,0 l/m N-NW 0,00 h 84 W/m 11,2 km/h (2 Bft)
05.09.2015 15:00 15,3 C 60 % 1015,0 hPa 0,0 l/m NW 0,33 h 279 W/m 12,8 km/h (3 Bft)
05.09.2015 16:00 15,9 C 57 % 1015,0 hPa 0,0 l/m W-NW 0,50 h 312 W/m 13,7 km/h (3 Bft)
05.09.2015 17:00 16,7 C 54 % 1015,0 hPa 0,0 l/m W-NW 0,58 h 265 W/m 14,9 km/h (3 Bft)
05.09.2015 18:00 15,2 C 58 % 1015,6 hPa 0,0 l/m W-NW 0,33 h 110 W/m 16,2 km/h (3 Bft)
05.09.2015 19:00 13,5 C 64 % 1016,1 hPa 0,0 l/m NW 0,00 h 17 W/m 8,7 km/h (2 Bft)
05.09.2015 20:00 12,4 C 70 % 1016,8 hPa 0,0 l/m W-NW 0,00 h 0 W/m 6,2 km/h (2 Bft)
05.09.2015 21:00 11,8 C 73 % 1017,3 hPa 0,0 l/m W 0,00 h 0 W/m 6,1 km/h (2 Bft)
05.09.2015 22:00 11,6 C 75 % 1017,5 hPa 0,0 l/m W 0,00 h 0 W/m 7,1 km/h (2 Bft)
05.09.2015 23:00 11,4 C 77 % 1017,7 hPa 0,0 l/m W 0,00 h 0 W/m 6,9 km/h (2 Bft)
06.09.2015 00:00 11,3 C 79 % 1017,9 hPa 0,0 l/m W-SW 0,00 h 0 W/m 7,8 km/h (2 Bft)
06.09.2015 01:00 11,1 C 81 % 1017,8 hPa 0,0 l/m W 0,00 h 0 W/m 11,0 km/h (2 Bft)
06.09.2015 02:00 10,5 C 85 % 1017,8 hPa 0,0 l/m W-SW 0,00 h 0 W/m 12,6 km/h (3 Bft)
06.09.2015 03:00 10,2 C 86 % 1017,9 hPa 0,0 l/m W 0,00 h 0 W/m 14,0 km/h (3 Bft)
06.09.2015 04:00 10,1 C 86 % 1018,0 hPa 0,0 l/m W 0,00 h 0 W/m 12,5 km/h (3 Bft)
06.09.2015 05:00 10,1 C 86 % 1018,1 hPa 0,0 l/m W 0,00 h 0 W/m 11,1 km/h (2 Bft)
06.09.2015 06:00 10,1 C 86 % 1018,5 hPa 0,0 l/m W 0,00 h 0 W/m 15,3 km/h (3 Bft)
06.09.2015 07:00 9,8 C 89 % 1019,3 hPa 1,8 l/m W-NW 0,00 h 8 W/m 14,0 km/h (3 Bft)
06.09.2015 08:00 8,4 C 91 % 1020,2 hPa 0,6 l/m N 0,00 h 48 W/m 5,2 km/h (1 Bft)
06.09.2015 09:00 8,4 C 93 % 1020,7 hPa 0,0 l/m N 0,00 h 48 W/m 0,7 km/h (0 Bft)
06.09.2015 10:00 8,8 C 94 % 1021,3 hPa 0,0 l/m N 0,00 h 128 W/m 3,9 km/h (1 Bft)
06.09.2015 11:00 9,9 C 90 % 1021,5 hPa 0,0 l/m N-NW 0,08 h 209 W/m 10,1 km/h (2 Bft)
06.09.2015 12:00 11,5 C 76 % 1021,5 hPa 0,0 l/m N-NW 0,58 h 581 W/m 14,2 km/h (3 Bft)
06.09.2015 13:00 12,8 C 66 % 1021,7 hPa 0,0 l/m N 0,00 h 243 W/m 13,7 km/h (3 Bft)
06.09.2015 14:00 13,4 C 61 % 1022,0 hPa 0,0 l/m N-NO 0,42 h 555 W/m 13,8 km/h (3 Bft)
06.09.2015 15:00 14,5 C 57 % 1022,1 hPa 0,0 l/m N 0,42 h 403 W/m 14,9 km/h (3 Bft)
06.09.2015 16:00 14,6 C 52 % 1022,3 hPa 0,0 l/m N 0,00 h 212 W/m 14,1 km/h (3 Bft)
06.09.2015 17:00 15,0 C 52 % 1022,4 hPa 0,0 l/m N-NW 0,67 h 375 W/m 12,1 km/h (2 Bft)
06.09.2015 18:00 14,2 C 53 % 1022,7 hPa 0,0 l/m N-NW 0,08 h 76 W/m 10,3 km/h (2 Bft)
06.09.2015 19:00 12,7 C 58 % 1023,0 hPa 0,0 l/m N-NW 0,00 h 20 W/m 6,1 km/h (2 Bft)
06.09.2015 20:00 11,4 C 67 % 1023,5 hPa 0,0 l/m N 0,00 h 0 W/m 0,0 km/h (0 Bft)
06.09.2015 21:00 9,7 C 75 % 1024,2 hPa 0,0 l/m N 0,00 h 0 W/m 0,0 km/h (0 Bft)
06.09.2015 22:00 8,3 C 81 % 1024,2 hPa 0,0 l/m N 0,00 h 0 W/m 0,1 km/h (0 Bft)
06.09.2015 23:00 7,4 C 84 % 1024,4 hPa 0,0 l/m N 0,00 h 0 W/m 0,1 km/h (0 Bft)
Min-Datum _ 06.09.15 31.08.15 01.09.15 - - - - 31.08.15
_ Min-Zeit 23:50 16:40 10:35 - - - - 00:00
Minimum _ 7,1 C 27 % 1006,5 hPa - - - - 0,0 km/h (0 Bft)
Max-Datum _ 31.08.15 04.09.15 06.09.15 03.09.15 - 31.08.15 02.09.15 01.09.15
_ Max-Zeit 16:55 08:05 21:45 20:15 - 08:10 14:05 13:10
Maximum _ 32,1 C 98 % 1024,4 hPa 6,6 l/m - 0,08 h 1048 W/m 37,0 km/h
W (5 Bft)
Durchschnitt _ 15,6 C 78 % 1013,9 hPa #20,4 l/m W #27:50 h 241 W/m 6,2 km/h (2 Bft)